sensor_id;sensor_type;location;lat;lon;timestamp;P1;durP1;ratioP1;P2;durP2;ratioP2
44850;SDS011;30583;48.714;9.386;2024-03-06T00:01:36;24.02;;;16.33;;
44850;SDS011;30583;48.714;9.386;2024-03-06T00:04:03;24.52;;;16.85;;
44850;SDS011;30583;48.714;9.386;2024-03-06T00:06:29;20.65;;;15.00;;
44850;SDS011;30583;48.714;9.386;2024-03-06T00:08:55;20.80;;;15.57;;
44850;SDS011;30583;48.714;9.386;2024-03-06T00:11:21;24.98;;;16.05;;
44850;SDS011;30583;48.714;9.386;2024-03-06T00:13:47;22.70;;;16.02;;
44850;SDS011;30583;48.714;9.386;2024-03-06T00:16:13;22.17;;;16.05;;
44850;SDS011;30583;48.714;9.386;2024-03-06T00:18:38;23.60;;;16.33;;
44850;SDS011;30583;48.714;9.386;2024-03-06T00:21:05;20.35;;;15.68;;
44850;SDS011;30583;48.714;9.386;2024-03-06T00:23:31;22.73;;;15.75;;
44850;SDS011;30583;48.714;9.386;2024-03-06T00:25:57;19.33;;;15.10;;
44850;SDS011;30583;48.714;9.386;2024-03-06T00:28:22;22.08;;;16.00;;
44850;SDS011;30583;48.714;9.386;2024-03-06T00:30:49;20.58;;;15.00;;
44850;SDS011;30583;48.714;9.386;2024-03-06T00:33:14;18.35;;;14.00;;
44850;SDS011;30583;48.714;9.386;2024-03-06T00:35:40;20.27;;;13.57;;
44850;SDS011;30583;48.714;9.386;2024-03-06T00:38:06;17.55;;;13.57;;
44850;SDS011;30583;48.714;9.386;2024-03-06T00:40:32;20.13;;;14.73;;
44850;SDS011;30583;48.714;9.386;2024-03-06T00:42:58;21.60;;;16.35;;
44850;SDS011;30583;48.714;9.386;2024-03-06T00:45:24;29.95;;;18.67;;
44850;SDS011;30583;48.714;9.386;2024-03-06T00:47:49;26.70;;;17.95;;
44850;SDS011;30583;48.714;9.386;2024-03-06T00:50:15;24.63;;;17.00;;
44850;SDS011;30583;48.714;9.386;2024-03-06T00:52:44;26.50;;;17.95;;
44850;SDS011;30583;48.714;9.386;2024-03-06T00:55:10;26.02;;;17.65;;
44850;SDS011;30583;48.714;9.386;2024-03-06T00:57:36;22.17;;;15.73;;
44850;SDS011;30583;48.714;9.386;2024-03-06T01:00:04;20.20;;;14.02;;
44850;SDS011;30583;48.714;9.386;2024-03-06T01:02:35;25.02;;;15.27;;
44850;SDS011;30583;48.714;9.386;2024-03-06T01:05:03;18.85;;;14.20;;
44850;SDS011;30583;48.714;9.386;2024-03-06T01:07:29;18.23;;;14.07;;
44850;SDS011;30583;48.714;9.386;2024-03-06T01:09:56;20.95;;;14.52;;
44850;SDS011;30583;48.714;9.386;2024-03-06T01:12:22;16.60;;;13.45;;
44850;SDS011;30583;48.714;9.386;2024-03-06T01:14:48;22.98;;;14.82;;
44850;SDS011;30583;48.714;9.386;2024-03-06T01:17:14;20.80;;;14.30;;
44850;SDS011;30583;48.714;9.386;2024-03-06T01:19:39;17.08;;;13.00;;
44850;SDS011;30583;48.714;9.386;2024-03-06T01:22:05;16.23;;;12.23;;
44850;SDS011;30583;48.714;9.386;2024-03-06T01:24:31;15.95;;;11.77;;
44850;SDS011;30583;48.714;9.386;2024-03-06T01:26:57;15.07;;;11.25;;
44850;SDS011;30583;48.714;9.386;2024-03-06T01:29:24;13.70;;;12.10;;
44850;SDS011;30583;48.714;9.386;2024-03-06T01:31:49;15.02;;;11.80;;
44850;SDS011;30583;48.714;9.386;2024-03-06T01:34:15;15.02;;;11.68;;
44850;SDS011;30583;48.714;9.386;2024-03-06T01:36:40;13.75;;;11.10;;
44850;SDS011;30583;48.714;9.386;2024-03-06T01:39:06;16.45;;;12.50;;
44850;SDS011;30583;48.714;9.386;2024-03-06T01:41:32;13.82;;;11.27;;
44850;SDS011;30583;48.714;9.386;2024-03-06T01:43:57;12.70;;;10.23;;
44850;SDS011;30583;48.714;9.386;2024-03-06T01:46:23;12.75;;;10.70;;
44850;SDS011;30583;48.714;9.386;2024-03-06T01:48:48;13.55;;;11.18;;
44850;SDS011;30583;48.714;9.386;2024-03-06T01:51:14;13.07;;;11.10;;
44850;SDS011;30583;48.714;9.386;2024-03-06T01:53:40;14.23;;;11.60;;
44850;SDS011;30583;48.714;9.386;2024-03-06T01:56:06;14.20;;;10.85;;
44850;SDS011;30583;48.714;9.386;2024-03-06T01:58:36;13.75;;;11.13;;
44850;SDS011;30583;48.714;9.386;2024-03-06T02:01:03;12.57;;;10.15;;
44850;SDS011;30583;48.714;9.386;2024-03-06T02:03:31;12.73;;;10.38;;
44850;SDS011;30583;48.714;9.386;2024-03-06T02:05:57;12.93;;;10.68;;
44850;SDS011;30583;48.714;9.386;2024-03-06T02:08:25;13.95;;;10.73;;
44850;SDS011;30583;48.714;9.386;2024-03-06T02:10:51;12.30;;;10.30;;
44850;SDS011;30583;48.714;9.386;2024-03-06T02:13:16;12.50;;;10.20;;
44850;SDS011;30583;48.714;9.386;2024-03-06T02:15:44;12.23;;;9.75;;
44850;SDS011;30583;48.714;9.386;2024-03-06T02:18:10;12.45;;;10.25;;
44850;SDS011;30583;48.714;9.386;2024-03-06T02:20:39;12.93;;;10.20;;
44850;SDS011;30583;48.714;9.386;2024-03-06T02:23:05;12.63;;;9.98;;
44850;SDS011;30583;48.714;9.386;2024-03-06T02:25:31;13.43;;;10.20;;
44850;SDS011;30583;48.714;9.386;2024-03-06T02:27:57;13.77;;;10.35;;
44850;SDS011;30583;48.714;9.386;2024-03-06T02:30:22;16.38;;;10.88;;
44850;SDS011;30583;48.714;9.386;2024-03-06T02:32:48;12.88;;;10.55;;
44850;SDS011;30583;48.714;9.386;2024-03-06T02:35:13;12.90;;;10.18;;
44850;SDS011;30583;48.714;9.386;2024-03-06T02:37:40;13.55;;;10.50;;
44850;SDS011;30583;48.714;9.386;2024-03-06T02:40:08;15.38;;;10.82;;
44850;SDS011;30583;48.714;9.386;2024-03-06T02:42:35;13.23;;;10.27;;
44850;SDS011;30583;48.714;9.386;2024-03-06T02:45:03;12.43;;;9.48;;
44850;SDS011;30583;48.714;9.386;2024-03-06T02:47:33;14.20;;;9.68;;
44850;SDS011;30583;48.714;9.386;2024-03-06T02:49:59;13.32;;;10.07;;
44850;SDS011;30583;48.714;9.386;2024-03-06T02:52:24;13.90;;;10.90;;
44850;SDS011;30583;48.714;9.386;2024-03-06T02:54:50;14.15;;;11.30;;
44850;SDS011;30583;48.714;9.386;2024-03-06T02:57:15;17.50;;;11.27;;
44850;SDS011;30583;48.714;9.386;2024-03-06T02:59:42;15.13;;;11.35;;
44850;SDS011;30583;48.714;9.386;2024-03-06T03:02:08;13.35;;;10.18;;
44850;SDS011;30583;48.714;9.386;2024-03-06T03:04:33;11.57;;;9.48;;
44850;SDS011;30583;48.714;9.386;2024-03-06T03:06:59;11.88;;;9.43;;
44850;SDS011;30583;48.714;9.386;2024-03-06T03:09:24;12.57;;;9.25;;
44850;SDS011;30583;48.714;9.386;2024-03-06T03:11:50;12.73;;;10.00;;
44850;SDS011;30583;48.714;9.386;2024-03-06T03:14:16;14.88;;;10.27;;
44850;SDS011;30583;48.714;9.386;2024-03-06T03:16:41;13.90;;;10.10;;
44850;SDS011;30583;48.714;9.386;2024-03-06T03:19:07;13.63;;;10.25;;
44850;SDS011;30583;48.714;9.386;2024-03-06T03:21:33;11.90;;;9.45;;
44850;SDS011;30583;48.714;9.386;2024-03-06T03:23:59;11.73;;;9.15;;
44850;SDS011;30583;48.714;9.386;2024-03-06T03:26:25;14.52;;;10.18;;
44850;SDS011;30583;48.714;9.386;2024-03-06T03:28:50;14.13;;;9.98;;
44850;SDS011;30583;48.714;9.386;2024-03-06T03:31:16;13.52;;;9.85;;
44850;SDS011;30583;48.714;9.386;2024-03-06T03:33:42;16.25;;;11.05;;
44850;SDS011;30583;48.714;9.386;2024-03-06T03:36:08;15.43;;;11.77;;
44850;SDS011;30583;48.714;9.386;2024-03-06T03:38:37;18.42;;;12.07;;
44850;SDS011;30583;48.714;9.386;2024-03-06T03:41:12;17.15;;;12.73;;
44850;SDS011;30583;48.714;9.386;2024-03-06T03:43:40;20.60;;;12.45;;
44850;SDS011;30583;48.714;9.386;2024-03-06T03:46:06;17.95;;;12.50;;
44850;SDS011;30583;48.714;9.386;2024-03-06T03:48:32;18.25;;;12.27;;
44850;SDS011;30583;48.714;9.386;2024-03-06T03:51:04;16.92;;;12.35;;
44850;SDS011;30583;48.714;9.386;2024-03-06T03:53:30;18.27;;;13.13;;
44850;SDS011;30583;48.714;9.386;2024-03-06T03:55:56;16.45;;;12.32;;
44850;SDS011;30583;48.714;9.386;2024-03-06T03:58:21;18.23;;;12.23;;
44850;SDS011;30583;48.714;9.386;2024-03-06T04:00:47;19.63;;;12.50;;
44850;SDS011;30583;48.714;9.386;2024-03-06T04:03:12;18.17;;;12.10;;
44850;SDS011;30583;48.714;9.386;2024-03-06T04:05:38;17.58;;;12.50;;
44850;SDS011;30583;48.714;9.386;2024-03-06T04:08:04;12.73;;;10.07;;
44850;SDS011;30583;48.714;9.386;2024-03-06T04:10:31;15.70;;;10.60;;
44850;SDS011;30583;48.714;9.386;2024-03-06T04:12:57;16.23;;;11.02;;
44850;SDS011;30583;48.714;9.386;2024-03-06T04:15:24;16.15;;;12.55;;
44850;SDS011;30583;48.714;9.386;2024-03-06T04:17:50;17.20;;;12.10;;
44850;SDS011;30583;48.714;9.386;2024-03-06T04:20:17;17.27;;;11.68;;
44850;SDS011;30583;48.714;9.386;2024-03-06T04:22:42;17.38;;;11.20;;
44850;SDS011;30583;48.714;9.386;2024-03-06T04:25:12;17.25;;;11.77;;
44850;SDS011;30583;48.714;9.386;2024-03-06T04:27:39;16.85;;;11.23;;
44850;SDS011;30583;48.714;9.386;2024-03-06T04:30:04;19.67;;;12.55;;
44850;SDS011;30583;48.714;9.386;2024-03-06T04:32:30;15.70;;;12.35;;
44850;SDS011;30583;48.714;9.386;2024-03-06T04:34:56;17.05;;;13.13;;
44850;SDS011;30583;48.714;9.386;2024-03-06T04:37:22;19.02;;;12.93;;
44850;SDS011;30583;48.714;9.386;2024-03-06T04:39:48;15.82;;;12.13;;
44850;SDS011;30583;48.714;9.386;2024-03-06T04:42:13;20.80;;;12.32;;
44850;SDS011;30583;48.714;9.386;2024-03-06T04:44:39;17.17;;;11.95;;
44850;SDS011;30583;48.714;9.386;2024-03-06T04:47:04;16.30;;;11.73;;
44850;SDS011;30583;48.714;9.386;2024-03-06T04:49:33;16.17;;;11.63;;
44850;SDS011;30583;48.714;9.386;2024-03-06T04:51:59;15.05;;;10.80;;
44850;SDS011;30583;48.714;9.386;2024-03-06T04:54:26;16.15;;;10.77;;
44850;SDS011;30583;48.714;9.386;2024-03-06T04:56:51;15.65;;;11.55;;
44850;SDS011;30583;48.714;9.386;2024-03-06T04:59:17;16.40;;;11.63;;
44850;SDS011;30583;48.714;9.386;2024-03-06T05:01:42;15.50;;;11.23;;
44850;SDS011;30583;48.714;9.386;2024-03-06T05:04:09;17.92;;;12.02;;
44850;SDS011;30583;48.714;9.386;2024-03-06T05:06:35;15.88;;;10.05;;
44850;SDS011;30583;48.714;9.386;2024-03-06T05:09:01;15.77;;;10.88;;
44850;SDS011;30583;48.714;9.386;2024-03-06T05:11:28;15.70;;;11.82;;
44850;SDS011;30583;48.714;9.386;2024-03-06T05:13:54;13.45;;;9.60;;
44850;SDS011;30583;48.714;9.386;2024-03-06T05:16:20;16.40;;;9.85;;
44850;SDS011;30583;48.714;9.386;2024-03-06T05:18:48;16.42;;;10.18;;
44850;SDS011;30583;48.714;9.386;2024-03-06T05:21:13;14.32;;;9.48;;
44850;SDS011;30583;48.714;9.386;2024-03-06T05:23:39;15.05;;;9.65;;
44850;SDS011;30583;48.714;9.386;2024-03-06T05:26:05;14.43;;;8.98;;
44850;SDS011;30583;48.714;9.386;2024-03-06T05:28:30;11.38;;;8.65;;
44850;SDS011;30583;48.714;9.386;2024-03-06T05:30:56;11.82;;;7.80;;
44850;SDS011;30583;48.714;9.386;2024-03-06T05:33:22;11.68;;;8.32;;
44850;SDS011;30583;48.714;9.386;2024-03-06T05:35:47;13.25;;;8.13;;
44850;SDS011;30583;48.714;9.386;2024-03-06T05:38:13;13.63;;;8.68;;
44850;SDS011;30583;48.714;9.386;2024-03-06T05:40:38;14.63;;;10.45;;
44850;SDS011;30583;48.714;9.386;2024-03-06T05:43:05;17.27;;;12.02;;
44850;SDS011;30583;48.714;9.386;2024-03-06T05:45:31;17.13;;;11.05;;
44850;SDS011;30583;48.714;9.386;2024-03-06T05:47:56;15.95;;;10.40;;
44850;SDS011;30583;48.714;9.386;2024-03-06T05:50:22;16.02;;;9.93;;
44850;SDS011;30583;48.714;9.386;2024-03-06T05:52:48;15.82;;;10.32;;
44850;SDS011;30583;48.714;9.386;2024-03-06T05:55:14;16.63;;;10.98;;
44850;SDS011;30583;48.714;9.386;2024-03-06T05:57:39;26.27;;;15.02;;
44850;SDS011;30583;48.714;9.386;2024-03-06T06:00:10;28.17;;;16.15;;
44850;SDS011;30583;48.714;9.386;2024-03-06T06:02:37;31.52;;;18.70;;
44850;SDS011;30583;48.714;9.386;2024-03-06T06:05:03;24.23;;;15.68;;
44850;SDS011;30583;48.714;9.386;2024-03-06T06:07:29;20.75;;;14.05;;
44850;SDS011;30583;48.714;9.386;2024-03-06T06:09:54;18.67;;;12.23;;
44850;SDS011;30583;48.714;9.386;2024-03-06T06:12:20;19.10;;;12.88;;
44850;SDS011;30583;48.714;9.386;2024-03-06T06:14:45;36.50;;;24.17;;
44850;SDS011;30583;48.714;9.386;2024-03-06T06:17:11;19.17;;;11.65;;
44850;SDS011;30583;48.714;9.386;2024-03-06T06:19:41;16.70;;;10.68;;
44850;SDS011;30583;48.714;9.386;2024-03-06T06:22:08;27.35;;;20.73;;
44850;SDS011;30583;48.714;9.386;2024-03-06T06:24:35;21.80;;;16.80;;
44850;SDS011;30583;48.714;9.386;2024-03-06T06:27:01;13.85;;;10.40;;
44850;SDS011;30583;48.714;9.386;2024-03-06T06:29:27;12.70;;;9.07;;
44850;SDS011;30583;48.714;9.386;2024-03-06T06:31:54;13.10;;;9.95;;
44850;SDS011;30583;48.714;9.386;2024-03-06T06:34:19;14.65;;;10.07;;
44850;SDS011;30583;48.714;9.386;2024-03-06T06:36:45;11.38;;;8.10;;
44850;SDS011;30583;48.714;9.386;2024-03-06T06:39:11;13.27;;;7.30;;
44850;SDS011;30583;48.714;9.386;2024-03-06T06:41:37;10.30;;;6.65;;
44850;SDS011;30583;48.714;9.386;2024-03-06T06:44:03;12.77;;;6.75;;
44850;SDS011;30583;48.714;9.386;2024-03-06T06:46:29;10.75;;;6.65;;
44850;SDS011;30583;48.714;9.386;2024-03-06T06:48:54;11.93;;;7.03;;
44850;SDS011;30583;48.714;9.386;2024-03-06T06:51:20;8.70;;;6.45;;
44850;SDS011;30583;48.714;9.386;2024-03-06T06:53:46;10.32;;;7.13;;
44850;SDS011;30583;48.714;9.386;2024-03-06T06:56:11;14.43;;;7.75;;
44850;SDS011;30583;48.714;9.386;2024-03-06T06:58:37;12.02;;;7.50;;
44850;SDS011;30583;48.714;9.386;2024-03-06T07:01:02;12.43;;;7.53;;
44850;SDS011;30583;48.714;9.386;2024-03-06T07:03:29;11.38;;;6.97;;
44850;SDS011;30583;48.714;9.386;2024-03-06T07:05:55;12.30;;;7.35;;
44850;SDS011;30583;48.714;9.386;2024-03-06T07:08:22;10.07;;;6.93;;
44850;SDS011;30583;48.714;9.386;2024-03-06T07:10:48;10.32;;;7.03;;
44850;SDS011;30583;48.714;9.386;2024-03-06T07:13:23;11.50;;;6.95;;
44850;SDS011;30583;48.714;9.386;2024-03-06T07:15:48;7.90;;;4.88;;
44850;SDS011;30583;48.714;9.386;2024-03-06T07:18:14;6.25;;;3.90;;
44850;SDS011;30583;48.714;9.386;2024-03-06T07:20:40;6.18;;;3.88;;
44850;SDS011;30583;48.714;9.386;2024-03-06T07:23:06;9.63;;;5.63;;
44850;SDS011;30583;48.714;9.386;2024-03-06T07:25:31;11.82;;;5.72;;
44850;SDS011;30583;48.714;9.386;2024-03-06T07:27:57;8.57;;;5.82;;
44850;SDS011;30583;48.714;9.386;2024-03-06T07:30:23;10.73;;;6.03;;
44850;SDS011;30583;48.714;9.386;2024-03-06T07:32:48;8.73;;;5.53;;
44850;SDS011;30583;48.714;9.386;2024-03-06T07:35:14;8.23;;;5.82;;
44850;SDS011;30583;48.714;9.386;2024-03-06T07:37:39;7.10;;;6.03;;
44850;SDS011;30583;48.714;9.386;2024-03-06T07:40:08;10.32;;;6.70;;
44850;SDS011;30583;48.714;9.386;2024-03-06T07:42:34;10.35;;;6.78;;
44850;SDS011;30583;48.714;9.386;2024-03-06T07:45:00;11.57;;;6.55;;
44850;SDS011;30583;48.714;9.386;2024-03-06T07:47:25;7.75;;;6.35;;
44850;SDS011;30583;48.714;9.386;2024-03-06T07:49:51;9.00;;;6.45;;
44850;SDS011;30583;48.714;9.386;2024-03-06T07:52:17;10.02;;;7.18;;
44850;SDS011;30583;48.714;9.386;2024-03-06T07:54:43;10.48;;;7.50;;
44850;SDS011;30583;48.714;9.386;2024-03-06T07:57:08;9.52;;;7.03;;
44850;SDS011;30583;48.714;9.386;2024-03-06T07:59:34;11.15;;;7.07;;
44850;SDS011;30583;48.714;9.386;2024-03-06T08:02:00;10.15;;;7.30;;
44850;SDS011;30583;48.714;9.386;2024-03-06T08:04:26;11.68;;;7.88;;
44850;SDS011;30583;48.714;9.386;2024-03-06T08:06:52;12.65;;;7.70;;
44850;SDS011;30583;48.714;9.386;2024-03-06T08:09:17;10.35;;;8.10;;
44850;SDS011;30583;48.714;9.386;2024-03-06T08:11:44;12.05;;;7.32;;
44850;SDS011;30583;48.714;9.386;2024-03-06T08:14:10;12.10;;;7.32;;
44850;SDS011;30583;48.714;9.386;2024-03-06T08:16:36;11.85;;;6.75;;
44850;SDS011;30583;48.714;9.386;2024-03-06T08:19:02;12.38;;;7.65;;
44850;SDS011;30583;48.714;9.386;2024-03-06T08:21:28;10.88;;;6.93;;
44850;SDS011;30583;48.714;9.386;2024-03-06T08:23:53;8.98;;;7.05;;
44850;SDS011;30583;48.714;9.386;2024-03-06T08:26:19;10.88;;;7.32;;
44850;SDS011;30583;48.714;9.386;2024-03-06T08:28:44;11.93;;;8.68;;
44850;SDS011;30583;48.714;9.386;2024-03-06T08:31:10;13.05;;;8.40;;
44850;SDS011;30583;48.714;9.386;2024-03-06T08:33:35;11.32;;;7.50;;
44850;SDS011;30583;48.714;9.386;2024-03-06T08:36:02;10.15;;;7.50;;
44850;SDS011;30583;48.714;9.386;2024-03-06T08:38:28;11.20;;;7.95;;
44850;SDS011;30583;48.714;9.386;2024-03-06T08:40:53;12.98;;;7.72;;
44850;SDS011;30583;48.714;9.386;2024-03-06T08:43:19;8.48;;;7.38;;
44850;SDS011;30583;48.714;9.386;2024-03-06T08:45:45;9.88;;;6.68;;
44850;SDS011;30583;48.714;9.386;2024-03-06T08:48:12;11.52;;;7.63;;
44850;SDS011;30583;48.714;9.386;2024-03-06T08:50:38;12.73;;;7.38;;
44850;SDS011;30583;48.714;9.386;2024-03-06T08:53:03;9.30;;;7.00;;
44850;SDS011;30583;48.714;9.386;2024-03-06T08:55:29;11.75;;;8.02;;
44850;SDS011;30583;48.714;9.386;2024-03-06T08:57:55;12.57;;;8.55;;
44850;SDS011;30583;48.714;9.386;2024-03-06T09:00:20;11.25;;;7.55;;
44850;SDS011;30583;48.714;9.386;2024-03-06T09:02:46;11.52;;;7.70;;
44850;SDS011;30583;48.714;9.386;2024-03-06T09:05:12;11.30;;;7.53;;
44850;SDS011;30583;48.714;9.386;2024-03-06T09:07:40;10.27;;;7.97;;
44850;SDS011;30583;48.714;9.386;2024-03-06T09:10:09;12.35;;;8.82;;
44850;SDS011;30583;48.714;9.386;2024-03-06T09:12:36;11.43;;;7.70;;
44850;SDS011;30583;48.714;9.386;2024-03-06T09:15:02;10.70;;;8.00;;
44850;SDS011;30583;48.714;9.386;2024-03-06T09:17:28;13.27;;;8.90;;
44850;SDS011;30583;48.714;9.386;2024-03-06T09:19:54;13.73;;;8.10;;
44850;SDS011;30583;48.714;9.386;2024-03-06T09:22:20;13.95;;;8.85;;
44850;SDS011;30583;48.714;9.386;2024-03-06T09:24:49;12.15;;;8.40;;
44850;SDS011;30583;48.714;9.386;2024-03-06T09:27:17;12.45;;;8.20;;
44850;SDS011;30583;48.714;9.386;2024-03-06T09:29:43;12.00;;;8.05;;
44850;SDS011;30583;48.714;9.386;2024-03-06T09:32:09;15.77;;;8.13;;
44850;SDS011;30583;48.714;9.386;2024-03-06T09:34:34;11.70;;;7.53;;
44850;SDS011;30583;48.714;9.386;2024-03-06T09:37:01;9.40;;;7.20;;
44850;SDS011;30583;48.714;9.386;2024-03-06T09:39:27;11.10;;;7.65;;
44850;SDS011;30583;48.714;9.386;2024-03-06T09:41:53;12.77;;;7.85;;
44850;SDS011;30583;48.714;9.386;2024-03-06T09:44:20;11.23;;;7.57;;
44850;SDS011;30583;48.714;9.386;2024-03-06T09:46:46;14.68;;;8.55;;
44850;SDS011;30583;48.714;9.386;2024-03-06T09:49:14;12.57;;;8.60;;
44850;SDS011;30583;48.714;9.386;2024-03-06T09:51:42;12.82;;;8.48;;
44850;SDS011;30583;48.714;9.386;2024-03-06T09:54:12;13.38;;;8.38;;
44850;SDS011;30583;48.714;9.386;2024-03-06T09:56:45;14.82;;;8.70;;
44850;SDS011;30583;48.714;9.386;2024-03-06T09:59:11;13.20;;;8.98;;
44850;SDS011;30583;48.714;9.386;2024-03-06T10:01:39;11.52;;;8.57;;
44850;SDS011;30583;48.714;9.386;2024-03-06T10:04:25;11.32;;;8.48;;
44850;SDS011;30583;48.714;9.386;2024-03-06T10:06:56;12.30;;;9.00;;
44850;SDS011;30583;48.714;9.386;2024-03-06T10:09:23;14.07;;;9.10;;
44850;SDS011;30583;48.714;9.386;2024-03-06T10:11:49;16.27;;;9.60;;
44850;SDS011;30583;48.714;9.386;2024-03-06T10:14:18;13.82;;;9.07;;
44850;SDS011;30583;48.714;9.386;2024-03-06T10:19:22;14.77;;;9.80;;
44850;SDS011;30583;48.714;9.386;2024-03-06T10:21:49;12.80;;;8.98;;
44850;SDS011;30583;48.714;9.386;2024-03-06T10:26:51;14.70;;;9.35;;
44850;SDS011;30583;48.714;9.386;2024-03-06T10:29:19;15.93;;;9.60;;
44850;SDS011;30583;48.714;9.386;2024-03-06T10:31:56;12.13;;;9.55;;
44850;SDS011;30583;48.714;9.386;2024-03-06T10:34:23;11.80;;;8.73;;
44850;SDS011;30583;48.714;9.386;2024-03-06T10:36:53;12.55;;;9.15;;
44850;SDS011;30583;48.714;9.386;2024-03-06T10:39:20;12.93;;;9.38;;
44850;SDS011;30583;48.714;9.386;2024-03-06T10:41:46;12.82;;;8.95;;
44850;SDS011;30583;48.714;9.386;2024-03-06T10:44:17;14.85;;;8.63;;
44850;SDS011;30583;48.714;9.386;2024-03-06T10:46:47;11.43;;;8.50;;
44850;SDS011;30583;48.714;9.386;2024-03-06T10:49:22;13.45;;;8.90;;
44850;SDS011;30583;48.714;9.386;2024-03-06T10:51:48;14.35;;;9.20;;
44850;SDS011;30583;48.714;9.386;2024-03-06T10:54:16;14.38;;;9.82;;
44850;SDS011;30583;48.714;9.386;2024-03-06T10:56:41;11.77;;;9.65;;
44850;SDS011;30583;48.714;9.386;2024-03-06T10:59:11;14.00;;;10.35;;
44850;SDS011;30583;48.714;9.386;2024-03-06T11:01:39;13.93;;;10.20;;
44850;SDS011;30583;48.714;9.386;2024-03-06T11:04:05;14.93;;;10.80;;
44850;SDS011;30583;48.714;9.386;2024-03-06T11:06:32;15.88;;;10.82;;
44850;SDS011;30583;48.714;9.386;2024-03-06T11:08:59;20.38;;;11.27;;
44850;SDS011;30583;48.714;9.386;2024-03-06T11:11:25;19.23;;;11.63;;
44850;SDS011;30583;48.714;9.386;2024-03-06T11:13:54;15.60;;;11.65;;
44850;SDS011;30583;48.714;9.386;2024-03-06T11:16:29;21.73;;;14.38;;
44850;SDS011;30583;48.714;9.386;2024-03-06T11:19:04;18.42;;;12.57;;
44850;SDS011;30583;48.714;9.386;2024-03-06T11:21:32;18.35;;;12.75;;
44850;SDS011;30583;48.714;9.386;2024-03-06T11:26:36;17.02;;;12.35;;
44850;SDS011;30583;48.714;9.386;2024-03-06T11:29:01;18.10;;;13.35;;
44850;SDS011;30583;48.714;9.386;2024-03-06T11:31:27;18.40;;;12.50;;
44850;SDS011;30583;48.714;9.386;2024-03-06T11:33:53;17.60;;;13.23;;
44850;SDS011;30583;48.714;9.386;2024-03-06T11:36:24;18.42;;;13.23;;
44850;SDS011;30583;48.714;9.386;2024-03-06T11:41:30;19.15;;;13.02;;
44850;SDS011;30583;48.714;9.386;2024-03-06T11:43:56;17.92;;;12.40;;
44850;SDS011;30583;48.714;9.386;2024-03-06T11:49:24;17.10;;;12.32;;
44850;SDS011;30583;48.714;9.386;2024-03-06T11:51:51;16.65;;;12.85;;
44850;SDS011;30583;48.714;9.386;2024-03-06T11:54:17;18.40;;;13.00;;
44850;SDS011;30583;48.714;9.386;2024-03-06T11:56:49;17.25;;;12.38;;
44850;SDS011;30583;48.714;9.386;2024-03-06T11:59:16;17.63;;;13.05;;
44850;SDS011;30583;48.714;9.386;2024-03-06T12:01:42;18.00;;;13.23;;
44850;SDS011;30583;48.714;9.386;2024-03-06T12:04:08;16.42;;;12.07;;
44850;SDS011;30583;48.714;9.386;2024-03-06T12:06:34;17.70;;;12.90;;
44850;SDS011;30583;48.714;9.386;2024-03-06T12:09:00;22.13;;;13.90;;
44850;SDS011;30583;48.714;9.386;2024-03-06T12:11:26;19.88;;;13.80;;
44850;SDS011;30583;48.714;9.386;2024-03-06T12:13:53;18.58;;;13.63;;
44850;SDS011;30583;48.714;9.386;2024-03-06T12:16:20;19.55;;;13.68;;
44850;SDS011;30583;48.714;9.386;2024-03-06T12:18:46;20.63;;;13.68;;
44850;SDS011;30583;48.714;9.386;2024-03-06T12:21:12;21.13;;;14.27;;
44850;SDS011;30583;48.714;9.386;2024-03-06T12:23:40;19.85;;;14.15;;
44850;SDS011;30583;48.714;9.386;2024-03-06T12:26:07;21.00;;;14.15;;
44850;SDS011;30583;48.714;9.386;2024-03-06T12:28:35;20.92;;;15.13;;
44850;SDS011;30583;48.714;9.386;2024-03-06T12:31:05;21.58;;;14.70;;
44850;SDS011;30583;48.714;9.386;2024-03-06T12:33:32;19.33;;;13.80;;
44850;SDS011;30583;48.714;9.386;2024-03-06T12:36:05;19.95;;;13.98;;
44850;SDS011;30583;48.714;9.386;2024-03-06T12:38:35;18.48;;;13.63;;
44850;SDS011;30583;48.714;9.386;2024-03-06T12:41:01;19.38;;;12.93;;
44850;SDS011;30583;48.714;9.386;2024-03-06T12:43:28;17.70;;;13.43;;
44850;SDS011;30583;48.714;9.386;2024-03-06T12:45:54;19.02;;;13.65;;
44850;SDS011;30583;48.714;9.386;2024-03-06T12:48:21;19.73;;;13.57;;
44850;SDS011;30583;48.714;9.386;2024-03-06T12:50:47;19.88;;;14.23;;
44850;SDS011;30583;48.714;9.386;2024-03-06T12:53:20;18.85;;;14.32;;
44850;SDS011;30583;48.714;9.386;2024-03-06T12:55:46;21.40;;;13.82;;
44850;SDS011;30583;48.714;9.386;2024-03-06T12:58:12;21.85;;;14.80;;
44850;SDS011;30583;48.714;9.386;2024-03-06T13:00:38;19.70;;;14.32;;
44850;SDS011;30583;48.714;9.386;2024-03-06T13:03:04;19.20;;;14.27;;
44850;SDS011;30583;48.714;9.386;2024-03-06T13:05:30;21.55;;;14.02;;
44850;SDS011;30583;48.714;9.386;2024-03-06T13:07:56;22.45;;;14.23;;
44850;SDS011;30583;48.714;9.386;2024-03-06T13:10:22;20.23;;;14.20;;
44850;SDS011;30583;48.714;9.386;2024-03-06T13:12:48;21.92;;;14.95;;
44850;SDS011;30583;48.714;9.386;2024-03-06T13:15:13;20.30;;;14.65;;
44850;SDS011;30583;48.714;9.386;2024-03-06T13:17:39;20.80;;;15.20;;
44850;SDS011;30583;48.714;9.386;2024-03-06T13:20:05;20.85;;;14.43;;
44850;SDS011;30583;48.714;9.386;2024-03-06T13:22:34;23.42;;;15.00;;
44850;SDS011;30583;48.714;9.386;2024-03-06T13:25:00;21.42;;;14.52;;
44850;SDS011;30583;48.714;9.386;2024-03-06T13:27:25;21.27;;;15.40;;
44850;SDS011;30583;48.714;9.386;2024-03-06T13:29:51;21.98;;;15.50;;
44850;SDS011;30583;48.714;9.386;2024-03-06T13:32:17;20.33;;;14.70;;
44850;SDS011;30583;48.714;9.386;2024-03-06T13:34:43;24.45;;;14.90;;
44850;SDS011;30583;48.714;9.386;2024-03-06T13:37:09;20.23;;;14.90;;
44850;SDS011;30583;48.714;9.386;2024-03-06T13:39:35;26.75;;;16.27;;
44850;SDS011;30583;48.714;9.386;2024-03-06T13:42:01;22.00;;;15.75;;
44850;SDS011;30583;48.714;9.386;2024-03-06T13:44:27;22.08;;;15.48;;
44850;SDS011;30583;48.714;9.386;2024-03-06T13:46:53;22.67;;;16.30;;
44850;SDS011;30583;48.714;9.386;2024-03-06T13:49:40;24.67;;;16.83;;
44850;SDS011;30583;48.714;9.386;2024-03-06T13:52:06;22.65;;;15.57;;
44850;SDS011;30583;48.714;9.386;2024-03-06T13:54:35;21.38;;;15.65;;
44850;SDS011;30583;48.714;9.386;2024-03-06T13:57:05;23.17;;;15.52;;
44850;SDS011;30583;48.714;9.386;2024-03-06T13:59:34;24.25;;;16.90;;
44850;SDS011;30583;48.714;9.386;2024-03-06T14:02:00;25.90;;;17.33;;
44850;SDS011;30583;48.714;9.386;2024-03-06T14:04:27;24.33;;;17.00;;
44850;SDS011;30583;48.714;9.386;2024-03-06T14:06:53;26.95;;;15.52;;
44850;SDS011;30583;48.714;9.386;2024-03-06T14:09:19;24.90;;;16.20;;
44850;SDS011;30583;48.714;9.386;2024-03-06T14:11:45;24.02;;;16.67;;
44850;SDS011;30583;48.714;9.386;2024-03-06T14:14:10;22.80;;;16.00;;
44850;SDS011;30583;48.714;9.386;2024-03-06T14:16:36;23.75;;;16.63;;
44850;SDS011;30583;48.714;9.386;2024-03-06T14:19:05;24.42;;;16.63;;
44850;SDS011;30583;48.714;9.386;2024-03-06T14:21:30;22.65;;;16.00;;
44850;SDS011;30583;48.714;9.386;2024-03-06T14:23:59;25.35;;;17.55;;
44850;SDS011;30583;48.714;9.386;2024-03-06T14:26:28;24.25;;;16.40;;
44850;SDS011;30583;48.714;9.386;2024-03-06T14:28:54;23.70;;;16.52;;
44850;SDS011;30583;48.714;9.386;2024-03-06T14:31:20;25.88;;;16.73;;
44850;SDS011;30583;48.714;9.386;2024-03-06T14:33:46;25.73;;;17.25;;
44850;SDS011;30583;48.714;9.386;2024-03-06T14:36:11;24.73;;;17.25;;